Time,TemperatureF,DewpointF,PressureIn,WindDirection,WindDirectionDegrees,WindSpeedMPH,WindSpeedGustMPH,Humidity,HourlyPrecipIn,Conditions,Clouds,dailyrainin,SoftwareType,DateUTC
2013-05-10 00:01:00,45.0,42.8,29.89,North,0,2.0,12.8,92,0.10,,,0.00,WUHU21623XXSP,2013-05-10 05:01:00,
2013-05-10 00:06:00,45.0,42.8,29.89,NE,45,3.8,7.6,92,0.10,,,0.00,WUHU21623XXSP,2013-05-10 05:06:00,
2013-05-10 00:11:00,44.8,42.6,29.90,ENE,67,4.3,8.1,92,0.12,,,0.02,WUHU21623XXSP,2013-05-10 05:11:00,
2013-05-10 00:16:00,44.6,42.4,29.89,NE,45,2.0,8.1,92,0.12,,,0.04,WUHU21623XXSP,2013-05-10 05:16:00,
2013-05-10 00:21:00,44.4,42.3,29.89,NNE,22,1.6,6.7,92,0.12,,,0.04,WUHU21623XXSP,2013-05-10 05:21:00,
2013-05-10 00:26:00,44.4,42.5,29.89,North,0,3.1,6.9,93,0.12,,,0.06,WUHU21623XXSP,2013-05-10 05:26:00,
2013-05-10 00:31:00,44.2,42.4,29.89,NNE,22,1.3,10.7,93,0.12,,,0.06,WUHU21623XXSP,2013-05-10 05:31:00,
2013-05-10 00:36:00,44.2,42.4,29.89,NE,45,1.3,10.7,93,0.12,,,0.08,WUHU21623XXSP,2013-05-10 05:36:00,
2013-05-10 00:41:00,44.1,42.2,29.89,NNW,337,1.8,7.8,93,0.12,,,0.08,WUHU21623XXSP,2013-05-10 05:41:00,
2013-05-10 00:46:00,44.1,42.2,29.89,NE,45,0.9,7.4,93,0.12,,,0.10,WUHU21623XXSP,2013-05-10 05:46:00,
2013-05-10 00:51:00,43.9,42.0,29.89,ENE,67,0.9,7.6,93,0.12,,,0.10,WUHU21623XXSP,2013-05-10 05:51:00,
2013-05-10 00:56:00,43.9,42.0,29.89,ESE,112,2.9,7.6,93,0.12,,,0.12,WUHU21623XXSP,2013-05-10 05:56:00,
2013-05-10 01:01:00,43.9,42.0,29.88,NNE,22,4.0,10.3,93,0.12,,,0.12,WUHU21623XXSP,2013-05-10 06:01:00,
2013-05-10 01:06:00,43.9,42.0,29.88,NNE,22,1.6,10.3,93,0.10,,,0.12,WUHU21623XXSP,2013-05-10 06:06:00,
2013-05-10 01:11:00,43.9,42.0,29.87,NE,45,2.9,7.6,93,0.10,,,0.12,WUHU21623XXSP,2013-05-10 06:11:00,
2013-05-10 01:16:00,43.9,42.0,29.87,East,90,0.7,8.5,93,0.10,,,0.14,WUHU21623XXSP,2013-05-10 06:16:00,
2013-05-10 01:21:00,43.9,42.0,29.86,NE,45,3.1,8.5,93,0.10,,,0.14,WUHU21623XXSP,2013-05-10 06:21:00,
2013-05-10 01:26:00,44.1,42.2,29.86,NE,45,1.6,4.9,93,0.10,,,0.16,WUHU21623XXSP,2013-05-10 06:26:00,
2013-05-10 01:31:00,44.2,42.4,29.86,NNE,22,0.0,3.6,93,0.10,,,0.16,WUHU21623XXSP,2013-05-10 06:31:00,
2013-05-10 01:36:00,44.2,42.4,29.86,ENE,67,1.6,4.0,93,0.08,,,0.16,WUHU21623XXSP,2013-05-10 06:36:00,
2013-05-10 01:41:00,44.2,42.4,29.85,North,0,6.5,6.5,93,0.10,,,0.18,WUHU21623XXSP,2013-05-10 06:41:00,
2013-05-10 01:46:00,44.2,42.4,29.85,NW,315,2.5,9.6,93,0.08,,,0.18,WUHU21623XXSP,2013-05-10 06:46:00,
2013-05-10 01:51:00,43.9,42.0,29.85,NNW,337,0.9,9.6,93,0.10,,,0.20,WUHU21623XXSP,2013-05-10 06:51:00,
2013-05-10 01:56:00,43.9,42.0,29.84,ENE,67,1.3,8.5,93,0.10,,,0.22,WUHU21623XXSP,2013-05-10 06:56:00,
2013-05-10 02:01:00,43.7,41.8,29.84,NE,45,5.4,8.3,93,0.12,,,0.24,WUHU21623XXSP,2013-05-10 07:01:00,
2013-05-10 02:06:00,43.7,42.1,29.84,NNE,22,3.1,12.1,94,0.14,,,0.26,WUHU21623XXSP,2013-05-10 07:06:00,
2013-05-10 02:11:00,43.5,41.9,29.84,ENE,67,4.5,12.1,94,0.12,,,0.26,WUHU21623XXSP,2013-05-10 07:11:00,
2013-05-10 02:16:00,43.5,41.9,29.84,NNE,22,3.6,8.7,94,0.16,,,0.30,WUHU21623XXSP,2013-05-10 07:16:00,
2013-05-10 02:21:00,43.5,41.9,29.83,North,0,7.2,9.8,94,0.16,,,0.30,WUHU21623XXSP,2013-05-10 07:21:00,
2013-05-10 02:26:00,43.5,41.9,29.83,NNW,337,4.9,9.8,94,0.16,,,0.32,WUHU21623XXSP,2013-05-10 07:26:00,
2013-05-10 02:31:00,43.3,41.7,29.84,NNE,22,0.0,8.5,94,0.18,,,0.34,WUHU21623XXSP,2013-05-10 07:31:00,
2013-05-10 02:36:00,43.3,41.5,29.83,NNE,22,8.9,11.9,93,0.18,,,0.34,WUHU21623XXSP,2013-05-10 07:36:00,
2013-05-10 02:41:00,43.2,41.3,29.84,NNE,22,0.9,11.9,93,0.18,,,0.36,WUHU21623XXSP,2013-05-10 07:41:00,
2013-05-10 02:46:00,43.2,41.3,29.84,ENE,67,3.4,6.9,93,0.20,,,0.38,WUHU21623XXSP,2013-05-10 07:46:00,
2013-05-10 02:51:00,43.2,41.3,29.84,NE,45,10.5,10.5,93,0.18,,,0.38,WUHU21623XXSP,2013-05-10 07:51:00,
2013-05-10 02:56:00,43.0,41.1,29.84,ENE,67,4.3,10.5,93,0.18,,,0.40,WUHU21623XXSP,2013-05-10 07:56:00,
2013-05-10 03:01:00,43.0,41.1,29.84,ENE,67,3.1,7.6,93,0.18,,,0.40,WUHU21623XXSP,2013-05-10 08:01:00,
2013-05-10 03:06:00,42.6,40.7,29.84,NNE,22,6.9,9.8,93,0.16,,,0.42,WUHU21623XXSP,2013-05-10 08:06:00,
2013-05-10 03:11:00,42.6,40.7,29.84,North,0,6.5,9.8,93,0.16,,,0.44,WUHU21623XXSP,2013-05-10 08:11:00,
2013-05-10 03:16:00,42.6,40.7,29.84,NNE,22,6.0,12.3,93,0.16,,,0.46,WUHU21623XXSP,2013-05-10 08:16:00,
2013-05-10 03:21:00,42.6,40.7,29.84,NW,315,4.0,12.3,93,0.18,,,0.49,WUHU21623XXSP,2013-05-10 08:21:00,
2013-05-10 03:26:00,42.6,40.7,29.84,NNW,337,2.2,11.6,93,0.16,,,0.51,WUHU21623XXSP,2013-05-10 08:26:00,
2013-05-10 03:31:00,42.6,41.0,29.83,NNE,22,3.6,8.7,94,0.16,,,0.51,WUHU21623XXSP,2013-05-10 08:31:00,
2013-05-10 03:36:00,42.4,40.8,29.83,North,0,4.5,8.7,94,0.18,,,0.53,WUHU21623XXSP,2013-05-10 08:36:00,
2013-05-10 03:41:00,42.4,40.8,29.83,NE,45,2.7,9.2,94,0.18,,,0.55,WUHU21623XXSP,2013-05-10 08:41:00,
2013-05-10 03:46:00,42.4,40.8,29.84,NE,45,8.9,9.2,94,0.18,,,0.57,WUHU21623XXSP,2013-05-10 08:46:00,
2013-05-10 03:51:00,42.4,40.8,29.83,ENE,67,8.3,12.1,94,0.20,,,0.59,WUHU21623XXSP,2013-05-10 08:51:00,
2013-05-10 03:56:00,42.4,40.8,29.84,NNE,22,4.0,12.1,94,0.20,,,0.59,WUHU21623XXSP,2013-05-10 08:56:00,
2013-05-10 04:01:00,42.1,40.5,29.83,NNE,22,5.4,15.9,94,0.18,,,0.61,WUHU21623XXSP,2013-05-10 09:01:00,
2013-05-10 04:06:00,42.1,40.5,29.83,North,0,2.5,15.9,94,0.18,,,0.63,WUHU21623XXSP,2013-05-10 09:06:00,
2013-05-10 04:11:00,42.1,40.5,29.83,NNE,22,5.8,12.3,94,0.18,,,0.65,WUHU21623XXSP,2013-05-10 09:11:00,
2013-05-10 04:16:00,42.1,40.5,29.83,NNE,22,5.8,13.0,94,0.20,,,0.67,WUHU21623XXSP,2013-05-10 09:16:00,
2013-05-10 04:21:00,42.3,40.6,29.83,ENE,67,1.1,13.0,94,0.18,,,0.67,WUHU21623XXSP,2013-05-10 09:21:00,
2013-05-10 04:26:00,42.1,40.5,29.83,NNE,22,6.7,9.6,94,0.16,,,0.67,WUHU21623XXSP,2013-05-10 09:26:00,
2013-05-10 04:31:00,42.1,40.5,29.83,NE,45,2.0,12.5,94,0.16,,,0.69,WUHU21623XXSP,2013-05-10 09:31:00,
2013-05-10 04:36:00,42.1,40.5,29.83,NE,45,4.9,12.5,94,0.16,,,0.71,WUHU21623XXSP,2013-05-10 09:36:00,
2013-05-10 04:41:00,42.1,40.5,29.83,NE,45,6.7,8.9,94,0.16,,,0.71,WUHU21623XXSP,2013-05-10 09:41:00,
2013-05-10 04:46:00,42.1,40.5,29.83,NNW,337,1.6,11.0,94,0.14,,,0.73,WUHU21623XXSP,2013-05-10 09:46:00,
2013-05-10 04:51:00,42.1,40.5,29.83,NNE,22,15.0,15.0,94,0.14,,,0.73,WUHU21623XXSP,2013-05-10 09:51:00,
2013-05-10 04:56:00,42.1,40.5,29.83,NNE,22,5.6,15.0,94,0.14,,,0.75,WUHU21623XXSP,2013-05-10 09:56:00,
2013-05-10 05:01:00,41.9,40.3,29.83,NNE,22,7.4,11.6,94,0.12,,,0.75,WUHU21623XXSP,2013-05-10 10:01:00,
2013-05-10 05:06:00,41.9,40.3,29.83,NNE,22,4.5,11.9,94,0.12,,,0.77,WUHU21623XXSP,2013-05-10 10:06:00,
2013-05-10 05:11:00,41.9,40.3,29.84,NE,45,6.5,12.8,94,0.12,,,0.77,WUHU21623XXSP,2013-05-10 10:11:00,
2013-05-10 05:16:00,41.9,40.3,29.83,ENE,67,1.1,12.8,94,0.12,,,0.79,WUHU21623XXSP,2013-05-10 10:16:00,
2013-05-10 05:21:00,41.9,40.3,29.83,NNE,22,6.7,10.5,94,0.12,,,0.79,WUHU21623XXSP,2013-05-10 10:21:00,
2013-05-10 05:26:00,41.7,40.1,29.83,ENE,67,1.6,10.7,94,0.10,,,0.79,WUHU21623XXSP,2013-05-10 10:26:00,
2013-05-10 05:31:00,41.7,40.1,29.83,NE,45,4.7,10.7,94,0.10,,,0.81,WUHU21623XXSP,2013-05-10 10:31:00,
2013-05-10 05:36:00,41.7,40.1,29.83,NE,45,2.9,8.9,94,0.10,,,0.81,WUHU21623XXSP,2013-05-10 10:36:00,
2013-05-10 05:41:00,41.7,40.1,29.84,NNE,22,7.6,11.2,94,0.12,,,0.83,WUHU21623XXSP,2013-05-10 10:41:00,
2013-05-10 05:46:00,41.7,40.1,29.83,ENE,67,3.1,11.2,94,0.10,,,0.83,WUHU21623XXSP,2013-05-10 10:46:00,
2013-05-10 05:51:00,41.5,39.9,29.84,NE,45,3.4,11.2,94,0.10,,,0.85,WUHU21623XXSP,2013-05-10 10:51:00,
2013-05-10 05:56:00,41.5,39.9,29.84,NE,45,6.0,11.6,94,0.12,,,0.87,WUHU21623XXSP,2013-05-10 10:56:00,
2013-05-10 06:01:00,41.4,39.7,29.84,ENE,67,2.0,12.1,94,0.12,,,0.87,WUHU21623XXSP,2013-05-10 11:01:00,
2013-05-10 06:06:00,41.4,39.5,29.84,NNE,22,2.9,12.1,93,0.12,,,0.89,WUHU21623XXSP,2013-05-10 11:06:00,
2013-05-10 06:11:00,41.2,39.3,29.85,NNE,22,2.0,10.5,93,0.12,,,0.91,WUHU21623XXSP,2013-05-10 11:11:00,
2013-05-10 06:16:00,41.2,39.3,29.85,ENE,67,7.8,10.5,93,0.12,,,0.91,WUHU21623XXSP,2013-05-10 11:16:00,
2013-05-10 06:21:00,41.2,39.3,29.86,NE,45,3.1,19.7,93,0.12,,,0.91,WUHU21623XXSP,2013-05-10 11:21:00,
2013-05-10 06:26:00,41.2,39.1,29.86,NNW,337,4.3,19.7,93,0.10,,,0.91,WUHU21623XXSP,2013-05-10 11:26:00,
2013-05-10 06:31:00,41.2,39.3,29.86,ENE,67,2.7,13.0,93,0.10,,,0.91,WUHU21623XXSP,2013-05-10 11:31:00,
2013-05-10 06:36:00,41.2,39.3,29.86,NNE,22,3.4,11.6,93,0.12,,,0.93,WUHU21623XXSP,2013-05-10 11:36:00,
2013-05-10 06:41:00,41.2,39.3,29.86,NNE,22,3.6,11.6,93,0.10,,,0.93,WUHU21623XXSP,2013-05-10 11:41:00,
2013-05-10 06:46:00,41.0,39.1,29.87,NNE,22,5.1,11.2,93,0.10,,,0.93,WUHU21623XXSP,2013-05-10 11:46:00,
2013-05-10 06:51:00,41.2,39.3,29.87,East,90,0.0,10.1,93,0.08,,,0.93,WUHU21623XXSP,2013-05-10 11:51:00,
2013-05-10 06:56:00,41.2,39.3,29.86,NNE,22,3.8,10.1,93,0.06,,,0.93,WUHU21623XXSP,2013-05-10 11:56:00,
2013-05-10 07:01:00,40.8,38.9,29.87,NE,45,4.9,12.1,93,0.04,,,0.93,WUHU21623XXSP,2013-05-10 12:01:00,
2013-05-10 07:06:00,40.8,38.9,29.87,NE,45,8.7,12.1,93,0.04,,,0.93,WUHU21623XXSP,2013-05-10 12:06:00,
2013-05-10 07:11:00,40.8,38.9,29.86,NNE,22,4.9,12.3,93,0.02,,,0.93,WUHU21623XXSP,2013-05-10 12:11:00,
2013-05-10 07:16:00,40.8,38.9,29.87,NE,45,4.9,12.3,93,0.02,,,0.93,WUHU21623XXSP,2013-05-10 12:16:00,
2013-05-10 07:21:00,40.8,38.9,29.87,NNE,22,2.9,11.9,93,0.02,,,0.93,WUHU21623XXSP,2013-05-10 12:21:00,
2013-05-10 07:26:00,41.0,39.1,29.87,NNE,22,5.4,13.9,93,0.02,,,0.93,WUHU21623XXSP,2013-05-10 12:26:00,
2013-05-10 07:31:00,40.8,38.9,29.88,NE,45,5.4,13.9,93,0.00,,,0.93,WUHU21623XXSP,2013-05-10 12:31:00,
2013-05-10 07:36:00,41.0,39.1,29.87,NW,315,6.3,10.5,93,0.00,,,0.93,WUHU21623XXSP,2013-05-10 12:36:00,
2013-05-10 07:41:00,40.8,38.9,29.87,NNE,22,5.4,12.5,93,0.00,,,0.93,WUHU21623XXSP,2013-05-10 12:41:00,
2013-05-10 07:46:00,40.8,38.9,29.88,North,0,5.1,12.5,93,0.02,,,0.95,WUHU21623XXSP,2013-05-10 12:46:00,
2013-05-10 07:51:00,40.8,38.9,29.88,North,0,1.6,10.3,93,0.02,,,0.95,WUHU21623XXSP,2013-05-10 12:51:00,
2013-05-10 07:56:00,40.8,38.9,29.87,NNE,22,6.3,13.9,93,0.02,,,0.95,WUHU21623XXSP,2013-05-10 12:56:00,
2013-05-10 08:01:00,40.8,38.9,29.87,North,0,7.4,13.9,93,0.02,,,0.95,WUHU21623XXSP,2013-05-10 13:01:00,
2013-05-10 08:06:00,41.0,39.1,29.87,NE,45,5.1,11.9,93,0.02,,,0.95,WUHU21623XXSP,2013-05-10 13:06:00,
2013-05-10 08:11:00,41.0,38.8,29.88,NNE,22,2.9,17.0,92,0.02,,,0.95,WUHU21623XXSP,2013-05-10 13:11:00,
2013-05-10 08:16:00,41.0,38.8,29.88,North,0,6.7,17.0,92,0.02,,,0.95,WUHU21623XXSP,2013-05-10 13:16:00,
2013-05-10 08:21:00,41.2,39.3,29.88,North,0,6.9,9.6,93,0.02,,,0.95,WUHU21623XXSP,2013-05-10 13:21:00,
2013-05-10 08:26:00,41.2,39.0,29.88,NNW,337,4.3,10.5,92,0.02,,,0.95,WUHU21623XXSP,2013-05-10 13:26:00,
2013-05-10 08:31:00,41.0,38.8,29.88,NNW,337,8.1,19.7,92,0.02,,,0.95,WUHU21623XXSP,2013-05-10 13:31:00,
2013-05-10 08:36:00,41.0,38.8,29.88,NNE,22,5.1,19.7,92,0.02,,,0.95,WUHU21623XXSP,2013-05-10 13:36:00,
2013-05-10 08:41:00,41.4,39.5,29.88,NNW,337,8.1,15.2,93,0.02,,,0.95,WUHU21623XXSP,2013-05-10 13:41:00,
2013-05-10 08:46:00,41.2,39.3,29.88,NNE,22,3.6,12.8,93,0.00,,,0.95,WUHU21623XXSP,2013-05-10 13:46:00,
2013-05-10 08:51:00,40.8,38.7,29.89,NE,45,7.8,16.3,92,0.00,,,0.95,WUHU21623XXSP,2013-05-10 13:51:00,
2013-05-10 08:56:00,40.8,38.7,29.89,NNE,22,6.0,16.3,92,0.00,,,0.95,WUHU21623XXSP,2013-05-10 13:56:00,
2013-05-10 09:01:00,41.2,39.0,29.89,NNE,22,3.6,12.3,92,0.00,,,0.95,WUHU21623XXSP,2013-05-10 14:01:00,
2013-05-10 09:06:00,41.2,39.0,29.89,NNE,22,7.8,12.3,92,0.00,,,0.95,WUHU21623XXSP,2013-05-10 14:06:00,
2013-05-10 09:11:00,41.7,39.6,29.89,NNE,22,5.4,11.4,92,0.00,,,0.95,WUHU21623XXSP,2013-05-10 14:11:00,
2013-05-10 09:16:00,41.9,39.7,29.89,ENE,67,2.0,15.9,92,0.00,,,0.95,WUHU21623XXSP,2013-05-10 14:16:00,
2013-05-10 09:21:00,42.4,40.3,29.89,NNE,22,6.0,15.9,92,0.00,,,0.95,WUHU21623XXSP,2013-05-10 14:21:00,
2013-05-10 09:26:00,42.1,39.6,29.89,North,0,15.7,15.7,91,0.00,,,0.95,WUHU21623XXSP,2013-05-10 14:26:00,
2013-05-10 09:31:00,42.1,39.6,29.90,NE,45,4.5,15.7,91,0.00,,,0.95,WUHU21623XXSP,2013-05-10 14:31:00,
2013-05-10 09:36:00,42.3,39.8,29.89,NNE,22,5.4,12.8,91,0.00,,,0.95,WUHU21623XXSP,2013-05-10 14:36:00,
2013-05-10 09:41:00,42.4,40.0,29.90,NE,45,6.5,15.9,91,0.00,,,0.95,WUHU21623XXSP,2013-05-10 14:41:00,
2013-05-10 09:46:00,42.4,40.0,29.90,NNE,22,2.5,15.9,91,0.00,,,0.95,WUHU21623XXSP,2013-05-10 14:46:00,
2013-05-10 09:51:00,42.4,40.0,29.90,NNW,337,6.3,14.8,91,0.00,,,0.95,WUHU21623XXSP,2013-05-10 14:51:00,
2013-05-10 09:56:00,41.9,39.2,29.90,NW,315,5.1,11.9,90,0.00,,,0.95,WUHU21623XXSP,2013-05-10 14:56:00,
2013-05-10 10:01:00,41.7,39.3,29.90,North,0,9.6,16.8,91,0.00,,,0.95,WUHU21623XXSP,2013-05-10 15:01:00,
2013-05-10 10:06:00,41.7,39.3,29.91,NNE,22,4.3,16.8,91,0.00,,,0.95,WUHU21623XXSP,2013-05-10 15:06:00,
2013-05-10 10:11:00,41.5,39.1,29.91,NNE,22,7.6,16.3,91,0.00,,,0.95,WUHU21623XXSP,2013-05-10 15:11:00,
2013-05-10 10:16:00,41.9,39.5,29.91,NNW,337,8.3,16.3,91,0.00,,,0.95,WUHU21623XXSP,2013-05-10 15:16:00,
2013-05-10 10:21:00,42.1,39.6,29.91,NE,45,11.2,13.6,91,0.00,,,0.95,WUHU21623XXSP,2013-05-10 15:21:00,
2013-05-10 10:26:00,42.1,39.6,29.91,NE,45,5.1,11.2,91,0.00,,,0.95,WUHU21623XXSP,2013-05-10 15:26:00,
2013-05-10 10:31:00,42.1,39.6,29.91,NE,45,3.1,12.5,91,0.00,,,0.95,WUHU21623XXSP,2013-05-10 15:31:00,
2013-05-10 10:36:00,42.4,40.0,29.91,NNE,22,7.6,12.5,91,0.00,,,0.95,WUHU21623XXSP,2013-05-10 15:36:00,
2013-05-10 10:41:00,42.6,40.2,29.91,North,0,5.1,8.7,91,0.00,,,0.95,WUHU21623XXSP,2013-05-10 15:41:00,
2013-05-10 10:46:00,42.6,39.9,29.91,North,0,7.6,11.2,90,0.00,,,0.95,WUHU21623XXSP,2013-05-10 15:46:00,
2013-05-10 10:51:00,43.0,40.3,29.92,NE,45,5.6,14.3,90,0.00,,,0.95,WUHU21623XXSP,2013-05-10 15:51:00,
2013-05-10 10:56:00,43.0,40.3,29.91,NE,45,4.5,14.3,90,0.00,,,0.95,WUHU21623XXSP,2013-05-10 15:56:00,
2013-05-10 11:01:00,43.0,40.3,29.92,NNE,22,6.0,12.5,90,0.00,,,0.95,WUHU21623XXSP,2013-05-10 16:01:00,
2013-05-10 11:06:00,42.6,39.9,29.92,North,0,4.5,15.0,90,0.00,,,0.95,WUHU21623XXSP,2013-05-10 16:06:00,
2013-05-10 11:11:00,42.6,39.9,29.92,NE,45,2.9,15.0,90,0.00,,,0.95,WUHU21623XXSP,2013-05-10 16:11:00,
2013-05-10 11:16:00,43.2,40.5,29.93,NE,45,5.6,8.9,90,0.00,,,0.95,WUHU21623XXSP,2013-05-10 16:16:00,
2013-05-10 11:21:00,43.3,40.6,29.93,NNW,337,6.0,8.3,90,0.00,,,0.95,WUHU21623XXSP,2013-05-10 16:21:00,
2013-05-10 11:26:00,43.0,40.3,29.93,NNE,22,4.0,12.3,90,0.00,,,0.95,WUHU21623XXSP,2013-05-10 16:26:00,
2013-05-10 11:31:00,42.6,39.9,29.93,NNE,22,9.4,12.3,90,0.00,,,0.95,WUHU21623XXSP,2013-05-10 16:31:00,
2013-05-10 11:36:00,42.4,40.0,29.93,NE,45,10.7,13.0,91,0.00,,,0.95,WUHU21623XXSP,2013-05-10 16:36:00,
2013-05-10 11:41:00,42.6,40.2,29.93,NNE,22,11.9,13.0,91,0.00,,,0.95,WUHU21623XXSP,2013-05-10 16:41:00,
2013-05-10 11:46:00,42.4,40.0,29.93,NNE,22,6.3,13.0,91,0.00,,,0.95,WUHU21623XXSP,2013-05-10 16:46:00,
2013-05-10 11:51:00,42.4,40.0,29.93,North,0,11.9,13.0,91,0.00,,,0.95,WUHU21623XXSP,2013-05-10 16:51:00,
2013-05-10 11:56:00,42.4,40.0,29.93,NNE,22,8.5,13.0,91,0.00,,,0.95,WUHU21623XXSP,2013-05-10 16:56:00,
2013-05-10 12:01:00,42.4,40.0,29.93,NNW,337,2.9,11.9,91,0.00,,,0.95,WUHU21623XXSP,2013-05-10 17:01:00,
2013-05-10 12:06:00,42.4,40.0,29.93,North,0,2.9,9.8,91,0.00,,,0.95,WUHU21623XXSP,2013-05-10 17:06:00,
2013-05-10 12:11:00,42.1,39.6,29.93,NNE,22,8.1,12.5,91,0.00,,,0.95,WUHU21623XXSP,2013-05-10 17:11:00,
2013-05-10 12:16:00,42.1,39.6,29.93,North,0,3.8,12.5,91,0.00,,,0.95,WUHU21623XXSP,2013-05-10 17:16:00,
2013-05-10 12:21:00,42.1,39.6,29.93,NE,45,4.0,13.0,91,0.00,,,0.95,WUHU21623XXSP,2013-05-10 17:21:00,
2013-05-10 12:26:00,42.4,40.0,29.93,NNW,337,6.7,13.0,91,0.00,,,0.95,WUHU21623XXSP,2013-05-10 17:26:00,
2013-05-10 12:31:00,42.4,40.3,29.93,NW,315,5.1,13.0,92,0.00,,,0.95,WUHU21623XXSP,2013-05-10 17:31:00,
2013-05-10 12:36:00,42.6,40.5,29.93,NE,45,12.8,12.8,92,0.00,,,0.95,WUHU21623XXSP,2013-05-10 17:36:00,
2013-05-10 12:41:00,42.6,40.5,29.93,ENE,67,4.7,13.6,92,0.00,,,0.95,WUHU21623XXSP,2013-05-10 17:41:00,
2013-05-10 12:46:00,42.6,40.5,29.93,NNE,22,2.5,13.6,92,0.00,,,0.95,WUHU21623XXSP,2013-05-10 17:46:00,
2013-05-10 12:51:00,43.0,40.8,29.93,NNE,22,4.5,13.2,92,0.00,,,0.95,WUHU21623XXSP,2013-05-10 17:51:00,
2013-05-10 12:56:00,43.0,40.5,29.93,NNW,337,4.7,11.4,91,0.00,,,0.95,WUHU21623XXSP,2013-05-10 17:56:00,
2013-05-10 13:01:00,43.0,40.5,29.93,North,0,6.5,12.1,91,0.00,,,0.95,WUHU21623XXSP,2013-05-10 18:01:00,
2013-05-10 13:06:00,43.0,40.5,29.93,NNE,22,11.9,12.1,91,0.00,,,0.95,WUHU21623XXSP,2013-05-10 18:06:00,
2013-05-10 13:11:00,43.2,41.0,29.93,North,0,5.1,11.9,92,0.00,,,0.95,WUHU21623XXSP,2013-05-10 18:11:00,
2013-05-10 13:16:00,43.5,41.4,29.93,NNE,22,5.6,10.1,92,0.00,,,0.95,WUHU21623XXSP,2013-05-10 18:16:00,
2013-05-10 13:21:00,43.5,41.4,29.93,NNE,22,6.9,13.4,92,0.00,,,0.95,WUHU21623XXSP,2013-05-10 18:21:00,
2013-05-10 13:26:00,43.5,41.4,29.93,ENE,67,5.4,13.4,92,0.00,,,0.95,WUHU21623XXSP,2013-05-10 18:26:00,
2013-05-10 13:31:00,43.5,41.4,29.93,NE,45,8.1,12.3,92,0.00,,,0.95,WUHU21623XXSP,2013-05-10 18:31:00,
2013-05-10 13:36:00,43.7,41.3,29.93,NNW,337,9.2,15.4,91,0.00,,,0.95,WUHU21623XXSP,2013-05-10 18:36:00,
2013-05-10 13:41:00,43.5,41.1,29.92,North,0,4.7,15.4,91,0.00,,,0.95,WUHU21623XXSP,2013-05-10 18:41:00,
2013-05-10 13:46:00,43.9,41.5,29.92,NE,45,4.7,11.0,91,0.00,,,0.95,WUHU21623XXSP,2013-05-10 18:46:00,
2013-05-10 13:51:00,44.1,41.5,29.93,NNE,22,5.8,9.6,91,0.00,,,0.95,WUHU21623XXSP,2013-05-10 18:51:00,
2013-05-10 13:56:00,44.1,41.4,29.93,NNE,22,7.4,9.4,90,0.00,,,0.95,WUHU21623XXSP,2013-05-10 18:56:00,
2013-05-10 14:01:00,44.2,41.5,29.93,NE,45,3.8,9.4,90,0.00,,,0.95,WUHU21623XXSP,2013-05-10 19:01:00,
2013-05-10 14:06:00,44.8,42.1,29.93,NNE,22,8.9,8.9,90,0.00,,,0.95,WUHU21623XXSP,2013-05-10 19:06:00,
2013-05-10 14:11:00,44.8,41.8,29.93,North,0,9.4,11.2,89,0.00,,,0.95,WUHU21623XXSP,2013-05-10 19:11:00,
2013-05-10 14:16:00,45.0,42.0,29.93,NNW,337,5.1,11.4,89,0.00,,,0.95,WUHU21623XXSP,2013-05-10 19:16:00,
2013-05-10 14:21:00,45.1,42.1,29.93,ENE,67,5.4,11.4,89,0.00,,,0.95,WUHU21623XXSP,2013-05-10 19:21:00,
2013-05-10 14:26:00,45.1,41.8,29.93,NE,45,3.6,10.5,88,0.00,,,0.95,WUHU21623XXSP,2013-05-10 19:26:00,
2013-05-10 14:31:00,45.1,41.8,29.93,North,0,1.3,13.9,88,0.00,,,0.95,WUHU21623XXSP,2013-05-10 19:31:00,
2013-05-10 14:36:00,45.1,41.8,29.93,NNE,22,4.7,13.9,88,0.00,,,0.95,WUHU21623XXSP,2013-05-10 19:36:00,
2013-05-10 14:41:00,45.0,41.6,29.93,NE,45,3.1,12.3,88,0.00,,,0.95,WUHU21623XXSP,2013-05-10 19:41:00,
2013-05-10 14:46:00,45.1,41.8,29.93,NE,45,4.0,12.3,88,0.00,,,0.95,WUHU21623XXSP,2013-05-10 19:46:00,
2013-05-10 14:51:00,45.1,41.8,29.93,NE,45,4.5,11.2,88,0.00,,,0.95,WUHU21623XXSP,2013-05-10 19:51:00,
2013-05-10 14:56:00,45.1,41.8,29.93,NE,45,10.5,11.4,88,0.00,,,0.95,WUHU21623XXSP,2013-05-10 19:56:00,
2013-05-10 15:01:00,45.1,41.8,29.93,North,0,6.3,12.1,88,0.00,,,0.95,WUHU21623XXSP,2013-05-10 20:01:00,
2013-05-10 15:06:00,45.1,41.8,29.93,NE,45,2.5,12.1,88,0.00,,,0.95,WUHU21623XXSP,2013-05-10 20:06:00,
2013-05-10 15:11:00,45.3,41.8,29.93,NNE,22,5.4,9.6,88,0.00,,,0.95,WUHU21623XXSP,2013-05-10 20:11:00,
2013-05-10 15:16:00,45.3,42.0,29.93,North,0,4.9,6.5,88,0.00,,,0.95,WUHU21623XXSP,2013-05-10 20:16:00,
2013-05-10 15:21:00,45.5,42.2,29.93,NNE,22,5.1,10.7,88,0.00,,,0.95,WUHU21623XXSP,2013-05-10 20:21:00,
2013-05-10 15:26:00,45.3,41.7,29.92,North,0,4.5,10.7,87,0.00,,,0.95,WUHU21623XXSP,2013-05-10 20:26:00,
2013-05-10 15:31:00,45.5,41.9,29.92,NE,45,5.4,10.1,87,0.00,,,0.95,WUHU21623XXSP,2013-05-10 20:31:00,
2013-05-10 15:36:00,45.5,41.9,29.92,North,0,8.7,10.7,87,0.00,,,0.95,WUHU21623XXSP,2013-05-10 20:36:00,
2013-05-10 15:41:00,45.7,42.1,29.92,ENE,67,0.0,10.7,87,0.00,,,0.95,WUHU21623XXSP,2013-05-10 20:41:00,
2013-05-10 15:46:00,46.0,42.4,29.92,ENE,67,2.5,10.1,87,0.00,,,0.95,WUHU21623XXSP,2013-05-10 20:46:00,
2013-05-10 15:51:00,46.2,42.6,29.92,North,0,4.9,10.1,87,0.00,,,0.95,WUHU21623XXSP,2013-05-10 20:51:00,
2013-05-10 15:56:00,46.8,43.1,29.91,NE,45,3.8,9.4,87,0.00,,,0.95,WUHU21623XXSP,2013-05-10 20:56:00,
2013-05-10 16:01:00,46.9,43.0,29.91,NE,45,6.7,10.3,86,0.00,,,0.95,WUHU21623XXSP,2013-05-10 21:01:00,
2013-05-10 16:06:00,46.9,43.0,29.91,NE,45,5.4,10.3,86,0.00,,,0.95,WUHU21623XXSP,2013-05-10 21:06:00,
2013-05-10 16:11:00,47.3,42.9,29.91,NE,45,10.1,10.3,85,0.00,,,0.95,WUHU21623XXSP,2013-05-10 21:11:00,
2013-05-10 16:16:00,47.5,43.2,29.91,NNE,22,1.8,10.1,85,0.00,,,0.95,WUHU21623XXSP,2013-05-10 21:16:00,
2013-05-10 16:21:00,47.5,43.2,29.91,NE,45,6.9,7.8,85,0.00,,,0.95,WUHU21623XXSP,2013-05-10 21:21:00,
2013-05-10 16:26:00,47.3,42.7,29.91,NE,45,5.1,14.3,84,0.00,,,0.95,WUHU21623XXSP,2013-05-10 21:26:00,
2013-05-10 16:31:00,47.3,43.0,29.91,NNE,22,6.5,14.3,85,0.00,,,0.95,WUHU21623XXSP,2013-05-10 21:31:00,
2013-05-10 16:36:00,47.7,43.4,29.91,NE,45,4.9,10.1,85,0.00,,,0.95,WUHU21623XXSP,2013-05-10 21:36:00,
2013-05-10 16:41:00,47.5,42.9,29.90,NE,45,4.7,10.5,84,0.00,,,0.95,WUHU21623XXSP,2013-05-10 21:41:00,
2013-05-10 16:46:00,47.8,43.2,29.90,NE,45,5.8,11.4,84,0.00,,,0.95,WUHU21623XXSP,2013-05-10 21:46:00,
2013-05-10 16:51:00,47.8,43.2,29.90,North,0,3.6,11.4,84,0.00,,,0.95,WUHU21623XXSP,2013-05-10 21:51:00,
2013-05-10 16:56:00,47.8,42.9,29.90,North,0,7.4,12.1,83,0.00,,,0.95,WUHU21623XXSP,2013-05-10 21:56:00,
2013-05-10 16:58:00,48.0,43.1,29.90,NE,45,2.2,12.1,83,0.00,,,0.95,WUHU21623XXSP,2013-05-10 21:58:00,
2013-05-10 17:03:00,48.0,43.1,29.91,NE,45,5.8,12.1,83,0.00,,,0.95,WUHU21623XXSP,2013-05-10 22:03:00,
2013-05-10 17:08:00,48.2,43.6,29.91,North,0,4.7,8.9,84,0.00,,,0.95,WUHU21623XXSP,2013-05-10 22:08:00,
2013-05-10 17:13:00,48.6,43.9,29.91,NW,315,3.6,8.5,84,0.00,,,0.95,WUHU21623XXSP,2013-05-10 22:13:00,
2013-05-10 17:18:00,48.6,43.6,29.91,SSW,202,2.0,8.7,83,0.00,,,0.95,WUHU21623XXSP,2013-05-10 22:18:00,
2013-05-10 17:23:00,48.7,44.1,29.91,North,0,4.5,8.7,84,0.00,,,0.95,WUHU21623XXSP,2013-05-10 22:23:00,
2013-05-10 17:28:00,49.3,44.1,29.91,NE,45,7.6,8.3,83,0.00,,,0.95,WUHU21623XXSP,2013-05-10 22:28:00,
2013-05-10 17:33:00,49.3,44.0,29.91,NNE,22,12.8,12.8,82,0.00,,,0.95,WUHU21623XXSP,2013-05-10 22:33:00,
2013-05-10 17:38:00,49.3,44.3,29.90,NNE,22,1.8,12.8,83,0.00,,,0.95,WUHU21623XXSP,2013-05-10 22:38:00,
2013-05-10 17:43:00,49.5,44.4,29.90,NE,45,3.1,7.4,83,0.00,,,0.95,WUHU21623XXSP,2013-05-10 22:43:00,
2013-05-10 17:48:00,49.5,44.1,29.90,NE,45,3.1,8.3,82,0.00,,,0.95,WUHU21623XXSP,2013-05-10 22:48:00,
2013-05-10 17:53:00,49.6,44.6,29.90,North,0,7.4,8.3,83,0.00,,,0.95,WUHU21623XXSP,2013-05-10 22:53:00,
2013-05-10 17:58:00,49.6,44.3,29.90,North,0,4.3,12.8,82,0.00,,,0.95,WUHU21623XXSP,2013-05-10 22:58:00,
2013-05-10 18:03:00,49.6,44.3,29.90,NW,315,2.5,12.8,82,0.00,,,0.95,WUHU21623XXSP,2013-05-10 23:03:00,
2013-05-10 18:08:00,49.6,44.3,29.90,North,0,2.9,7.4,82,0.00,,,0.95,WUHU21623XXSP,2013-05-10 23:08:00,
2013-05-10 18:13:00,49.6,44.3,29.91,NE,45,2.0,7.4,82,0.00,,,0.95,WUHU21623XXSP,2013-05-10 23:13:00,
2013-05-10 18:18:00,49.6,44.3,29.91,NNE,22,4.0,8.1,82,0.00,,,0.95,WUHU21623XXSP,2013-05-10 23:18:00,
2013-05-10 18:23:00,49.8,44.5,29.90,NW,315,3.1,8.1,82,0.00,,,0.95,WUHU21623XXSP,2013-05-10 23:23:00,
2013-05-10 18:28:00,49.8,44.5,29.91,NE,45,5.8,6.9,82,0.00,,,0.95,WUHU21623XXSP,2013-05-10 23:28:00,
2013-05-10 18:33:00,49.8,44.5,29.90,NE,45,2.5,6.9,82,0.00,,,0.95,WUHU21623XXSP,2013-05-10 23:33:00,
2013-05-10 18:38:00,50.2,44.9,29.90,North,0,3.1,7.4,82,0.00,,,0.95,WUHU21623XXSP,2013-05-10 23:38:00,
2013-05-10 18:43:00,50.0,44.7,29.90,NNE,22,3.1,7.4,82,0.00,,,0.95,WUHU21623XXSP,2013-05-10 23:43:00,
2013-05-10 18:48:00,50.2,44.5,29.91,NNW,337,3.6,7.2,81,0.00,,,0.95,WUHU21623XXSP,2013-05-10 23:48:00,
2013-05-10 18:53:00,50.2,44.5,29.90,NE,45,3.1,7.2,81,0.00,,,0.95,WUHU21623XXSP,2013-05-10 23:53:00,
2013-05-10 18:58:00,50.5,44.9,29.90,North,0,1.1,5.8,81,0.00,,,0.95,WUHU21623XXSP,2013-05-10 23:58:00,
2013-05-10 19:03:00,51.1,45.1,29.89,NNE,22,3.4,5.1,80,0.00,,,0.95,WUHU21623XXSP,2013-05-11 00:03:00,
2013-05-10 19:08:00,51.4,45.2,29.89,North,0,1.8,5.1,79,0.00,,,0.95,WUHU21623XXSP,2013-05-11 00:08:00,
2013-05-10 19:13:00,51.3,45.0,29.89,ENE,67,1.1,3.4,79,0.00,,,0.95,WUHU21623XXSP,2013-05-11 00:13:00,
2013-05-10 19:18:00,50.7,44.4,29.89,NNE,22,1.8,2.9,79,0.00,,,0.95,WUHU21623XXSP,2013-05-11 00:18:00,
2013-05-10 19:23:00,50.2,43.9,29.89,North,0,0.0,2.9,79,0.00,,,0.95,WUHU21623XXSP,2013-05-11 00:23:00,
2013-05-10 19:28:00,49.8,43.9,29.90,North,0,1.1,2.9,80,0.00,,,0.95,WUHU21623XXSP,2013-05-11 00:28:00,
2013-05-10 19:33:00,49.6,43.7,29.90,SSE,157,0.0,1.1,80,0.00,,,0.95,WUHU21623XXSP,2013-05-11 00:33:00,
2013-05-10 19:38:00,49.1,43.5,29.90,North,0,0.0,1.1,81,0.00,,,0.95,WUHU21623XXSP,2013-05-11 00:38:00,
2013-05-10 19:43:00,48.9,43.3,29.89,WNW,292,0.0,0.0,81,0.00,,,0.95,WUHU21623XXSP,2013-05-11 00:43:00,
2013-05-10 19:48:00,48.7,43.1,29.89,West,270,0.0,0.0,81,0.00,,,0.95,WUHU21623XXSP,2013-05-11 00:48:00,
2013-05-10 19:53:00,48.4,43.1,29.89,SE,135,0.0,0.0,82,0.00,,,0.95,WUHU21623XXSP,2013-05-11 00:53:00,
2013-05-10 19:58:00,48.0,43.1,29.89,SE,135,0.0,0.0,83,0.00,,,0.95,WUHU21623XXSP,2013-05-11 00:58:00,
2013-05-10 20:03:00,47.3,42.7,29.89,SE,135,0.0,0.0,84,0.00,,,0.95,WUHU21623XXSP,2013-05-11 01:03:00,
2013-05-10 20:08:00,46.9,42.2,29.89,NNE,22,0.0,0.0,84,0.00,,,0.95,WUHU21623XXSP,2013-05-11 01:08:00,
2013-05-10 20:13:00,46.2,42.0,29.89,South,180,0.0,0.0,85,0.00,,,0.95,WUHU21623XXSP,2013-05-11 01:13:00,
2013-05-10 20:18:00,45.9,41.8,29.89,South,180,0.0,0.0,85,0.00,,,0.95,WUHU21623XXSP,2013-05-11 01:18:00,
2013-05-10 20:23:00,45.3,41.1,29.90,South,180,0.0,0.0,85,0.00,,,0.95,WUHU21623XXSP,2013-05-11 01:23:00,
2013-05-10 20:28:00,45.1,41.2,29.90,SSW,202,0.0,0.0,86,0.00,,,0.95,WUHU21623XXSP,2013-05-11 01:28:00,
2013-05-10 20:33:00,45.0,41.3,29.89,South,180,0.0,0.0,87,0.00,,,0.95,WUHU21623XXSP,2013-05-11 01:33:00,
2013-05-10 20:38:00,44.8,41.2,29.89,South,180,0.0,0.0,87,0.00,,,0.95,WUHU21623XXSP,2013-05-11 01:38:00,
2013-05-10 20:43:00,44.4,40.8,29.89,South,180,0.0,0.0,87,0.00,,,0.95,WUHU21623XXSP,2013-05-11 01:43:00,
2013-05-10 20:48:00,44.2,40.9,29.89,South,180,0.0,0.0,88,0.00,,,0.95,WUHU21623XXSP,2013-05-11 01:48:00,
2013-05-10 20:53:00,44.1,40.7,29.90,SSE,157,0.0,0.0,88,0.00,,,0.95,WUHU21623XXSP,2013-05-11 01:53:00,
2013-05-10 20:58:00,43.9,40.6,29.90,SSE,157,0.0,0.0,88,0.00,,,0.95,WUHU21623XXSP,2013-05-11 01:58:00,
2013-05-10 21:03:00,43.5,40.5,29.90,SSE,157,0.0,0.0,89,0.00,,,0.95,WUHU21623XXSP,2013-05-11 02:03:00,
2013-05-10 21:08:00,43.5,40.5,29.90,SSE,157,0.0,0.0,89,0.00,,,0.95,WUHU21623XXSP,2013-05-11 02:08:00,
2013-05-10 21:13:00,43.3,40.3,29.90,SSE,157,0.0,0.0,89,0.00,,,0.95,WUHU21623XXSP,2013-05-11 02:13:00,
2013-05-10 21:18:00,43.2,40.2,29.91,SSE,157,0.0,0.0,89,0.00,,,0.95,WUHU21623XXSP,2013-05-11 02:18:00,
2013-05-10 21:23:00,43.0,40.0,29.91,South,180,0.0,0.0,89,0.00,,,0.95,WUHU21623XXSP,2013-05-11 02:23:00,
2013-05-10 21:28:00,42.8,39.8,29.90,South,180,0.0,0.0,89,0.00,,,0.95,WUHU21623XXSP,2013-05-11 02:28:00,
2013-05-10 21:33:00,42.6,39.9,29.91,South,180,0.0,0.0,90,0.00,,,0.95,WUHU21623XXSP,2013-05-11 02:33:00,
2013-05-10 21:38:00,42.6,39.9,29.90,South,180,0.0,0.0,90,0.00,,,0.95,WUHU21623XXSP,2013-05-11 02:38:00,
2013-05-10 21:43:00,42.4,39.7,29.91,South,180,0.0,0.0,90,0.00,,,0.95,WUHU21623XXSP,2013-05-11 02:43:00,
2013-05-10 21:48:00,42.1,39.4,29.90,South,180,0.0,0.0,90,0.00,,,0.95,WUHU21623XXSP,2013-05-11 02:48:00,
2013-05-10 21:53:00,41.9,39.2,29.90,South,180,0.0,0.0,90,0.00,,,0.95,WUHU21623XXSP,2013-05-11 02:53:00,
2013-05-10 21:58:00,41.9,39.5,29.90,South,180,0.0,0.0,91,0.00,,,0.95,WUHU21623XXSP,2013-05-11 02:58:00,
2013-05-10 22:03:00,41.9,39.5,29.90,South,180,0.0,0.0,91,0.00,,,0.95,WUHU21623XXSP,2013-05-11 03:03:00,
2013-05-10 22:08:00,41.7,39.3,29.90,SE,135,0.0,1.3,91,0.00,,,0.95,WUHU21623XXSP,2013-05-11 03:08:00,
2013-05-10 22:13:00,41.7,39.3,29.90,South,180,0.0,1.3,91,0.00,,,0.95,WUHU21623XXSP,2013-05-11 03:13:00,
2013-05-10 22:18:00,41.5,39.1,29.90,SSW,202,0.0,1.1,91,0.00,,,0.95,WUHU21623XXSP,2013-05-11 03:18:00,
2013-05-10 22:23:00,41.4,38.9,29.90,NE,45,0.0,0.0,91,0.00,,,0.95,WUHU21623XXSP,2013-05-11 03:23:00,
2013-05-10 22:28:00,41.2,38.8,29.90,East,90,0.0,0.0,91,0.00,,,0.95,WUHU21623XXSP,2013-05-11 03:28:00,
2013-05-10 22:33:00,41.2,38.8,29.90,ESE,112,0.0,0.0,91,0.00,,,0.95,WUHU21623XXSP,2013-05-11 03:33:00,
2013-05-10 22:38:00,41.0,38.6,29.90,ESE,112,0.0,0.0,91,0.00,,,0.95,WUHU21623XXSP,2013-05-11 03:38:00,
2013-05-10 22:43:00,40.8,38.4,29.90,ESE,112,0.0,0.0,91,0.00,,,0.95,WUHU21623XXSP,2013-05-11 03:43:00,
2013-05-10 22:48:00,40.8,38.7,29.90,East,90,0.0,0.0,92,0.00,,,0.95,WUHU21623XXSP,2013-05-11 03:48:00,
2013-05-10 22:53:00,40.8,38.7,29.90,SE,135,0.0,0.0,92,0.00,,,0.95,WUHU21623XXSP,2013-05-11 03:53:00,
2013-05-10 22:58:00,40.8,38.7,29.89,SSE,157,0.0,0.0,92,0.00,,,0.95,WUHU21623XXSP,2013-05-11 03:58:00,
2013-05-10 23:01:00,40.8,38.7,29.89,SSE,157,0.0,0.0,92,0.00,,,0.95,WUHU21623XXSP,2013-05-11 04:01:00,
2013-05-10 23:06:00,40.8,38.7,29.90,SSE,157,0.0,0.0,92,0.00,,,0.95,WUHU21623XXSP,2013-05-11 04:06:00,
2013-05-10 23:11:00,40.6,38.5,29.89,ESE,112,0.0,0.0,92,0.00,,,0.95,WUHU21623XXSP,2013-05-11 04:11:00,
2013-05-10 23:16:00,40.6,38.5,29.89,NE,45,0.0,0.0,92,0.00,,,0.95,WUHU21623XXSP,2013-05-11 04:16:00,
2013-05-10 23:21:00,40.6,38.5,29.89,East,90,0.0,0.0,92,0.00,,,0.95,WUHU21623XXSP,2013-05-11 04:21:00,
2013-05-10 23:26:00,40.8,38.7,29.88,South,180,0.0,0.0,92,0.00,,,0.95,WUHU21623XXSP,2013-05-11 04:26:00,
2013-05-10 23:31:00,40.8,38.7,29.88,SW,225,0.0,0.0,92,0.00,,,0.95,WUHU21623XXSP,2013-05-11 04:31:00,
2013-05-10 23:36:00,41.2,39.0,29.88,NNE,22,0.0,1.1,92,0.00,,,0.95,WUHU21623XXSP,2013-05-11 04:36:00,
2013-05-10 23:41:00,41.2,39.0,29.88,NNE,22,0.0,1.1,92,0.00,,,0.95,WUHU21623XXSP,2013-05-11 04:41:00,
2013-05-10 23:46:00,41.2,39.3,29.88,ESE,112,0.0,0.0,93,0.00,,,0.95,WUHU21623XXSP,2013-05-11 04:46:00,
2013-05-10 23:51:00,41.2,39.3,29.88,SSW,202,0.0,0.0,93,0.00,,,0.95,WUHU21623XXSP,2013-05-11 04:51:00,
2013-05-10 23:56:00,41.5,39.6,29.88,SW,225,0.0,2.2,93,0.00,,,0.95,WUHU21623XXSP,2013-05-11 04:56:00,